| time (UTC) | temp F | wind direction | speed knots | gust knots | rain 1hr in | rain 24hr in | rain mn in | humidity % | barometer mb |
| 20260906141158 | 85 | 16 | 0.9 | 0.9 | 0.00 | 0.00 | 0.00 | 90 | 1013.2 |
| 20260906140657 | 84 | 304 | 2.6 | 2.6 | 0.00 | 0.00 | 0.00 | 90 | 1013.2 |
| 20260906140153 | 85 | 299 | 2.6 | 2.6 | 0.00 | 0.00 | 0.00 | 90 | 1013.1 |
| 20260906135649 | 84 | 11 | 0.9 | 0.9 | 0.00 | 0.00 | 0.00 | 90 | 1013.2 |
| 20260906135145 | 84 | 18 | 1.7 | 1.7 | 0.00 | 0.00 | 0.00 | 91 | 1013.4 |
| 20260906134641 | 84 | 6 | 0.9 | 0.9 | 0.00 | 0.00 | 0.00 | 92 | 1013.1 |
| 20260906134136 | 83 | 354 | 1.7 | 1.7 | 0.00 | 0.00 | 0.00 | 92 | 1013.2 |
| 20260906133632 | 83 | 270 | 3.5 | 4.3 | 0.00 | 0.00 | 0.00 | 92 | 1013.1 |
| 20260906133126 | 83 | 348 | 0.9 | 0.9 | 0.00 | 0.00 | 0.00 | 94 | 1013.4 |
| 20260906132621 | 82 | 342 | 0.9 | 1.7 | 0.00 | 0.00 | 0.00 | 94 | 1013.4 |
| 20260906132117 | 82 | 334 | 2.6 | 2.6 | 0.00 | 0.00 | 0.00 | 96 | 1013.3 |
| 20260906131613 | 82 | 3 | 1.7 | 1.7 | 0.00 | 0.00 | 0.00 | 97 | 1013.4 |
| 20260906131108 | 81 | 341 | 1.7 | 1.7 | 0.00 | 0.00 | 0.00 | 98 | 1013.3 |
| 20260906130602 | 80 | 13 | 1.7 | 1.7 | 0.00 | 0.00 | 0.00 | 98 | 1013.2 |
| 20260906130057 | 80 | 291 | 3.5 | 4.3 | 0.00 | 0.00 | 0.00 | 98 | 1013.7 |
| 20260906125554 | 79 | 352 | 1.7 | 1.7 | 0.00 | 0.00 | 0.00 | 99 | 1013.3 |
| 20260906125048 | 78 | 283 | 3.5 | 4.3 | 0.00 | 0.00 | 0.00 | 99 | 1013.3 |
| 20260906124544 | 78 | 356 | 0.9 | 0.9 | 0.00 | 0.00 | 0.00 | 99 | 1013.4 |
| 20260906124039 | 78 | 9 | 0.9 | 0.9 | 0.00 | 0.00 | 0.00 | 99 | 1013.2 |
| 20260906123538 | 77 | 13 | 0.9 | 0.9 | 0.00 | 0.00 | 0.00 | 99 | 1013.6 |
| 20260906123033 | 77 | 6 | 0.9 | 0.9 | 0.00 | 0.00 | 0.00 | 99 | 1013.5 |
| 20260906122527 | 77 | 343 | 0.9 | 1.7 | 0.00 | 0.00 | 0.00 | 99 | 1013.7 |
| 20260906122024 | 77 | 12 | 0.9 | 0.9 | 0.00 | 0.00 | 0.00 | 99 | 1013.5 |
| 20260906121519 | 76 | 359 | 0.9 | 0.9 | 0.00 | 0.00 | 0.00 | 99 | 1013.4 |
| 20260906121015 | 76 | 12 | 0.9 | 0.9 | 0.00 | 0.00 | 0.00 | 99 | 1013.3 |
| 20260906120516 | 76 | 9 | 0.0 | 0.0 | 0.00 | 0.00 | 0.00 | 99 | 1013.1 |
| 20260906120013 | 76 | 8 | 0.0 | 0.0 | 0.00 | 0.00 | 0.00 | 99 | 1013.3 |
| 20260906115508 | 75 | 13 | 0.0 | 0.0 | 0.00 | 0.00 | 0.00 | 99 | 1013.4 |
| 20260906115002 | 75 | 13 | 0.0 | 0.0 | 0.00 | 0.00 | 0.00 | 99 | 1013.2 |
| 20260906114456 | 75 | 17 | 0.0 | 0.0 | 0.00 | 0.00 | 0.00 | 99 | 1013.0 |
| 20260906113953 | 75 | 7 | 0.0 | 0.0 | 0.00 | 0.00 | 0.00 | 99 | 1012.9 |
| 20260906113451 | 75 | 4 | 0.0 | 0.0 | 0.00 | 0.00 | 0.00 | 99 | 1012.8 |
| 20260906112947 | 75 | 359 | 0.0 | 0.0 | 0.00 | 0.00 | 0.00 | 99 | 1012.7 |
| 20260906112442 | 75 | 5 | 0.0 | 0.0 | 0.00 | 0.00 | 0.00 | 99 | 1012.5 |
| 20260906111938 | 75 | 7 | 0.0 | 0.0 | 0.00 | 0.00 | 0.00 | 99 | 1012.6 |
| 20260906111437 | 74 | 7 | 0.0 | 0.0 | 0.00 | 0.00 | 0.00 | 99 | 1012.5 |
| 20260906110932 | 75 | 8 | 0.0 | 0.0 | 0.00 | 0.00 | 0.00 | 99 | 1012.6 |
| 20260906110427 | 75 | 8 | 0.0 | 0.0 | 0.00 | 0.00 | 0.00 | 99 | 1012.5 |
| 20260906105926 | 74 | 8 | 0.0 | 0.0 | 0.00 | 0.00 | 0.00 | 99 | 1012.2 |
| 20260906105422 | 75 | 8 | 0.0 | 0.0 | 0.00 | 0.00 | 0.00 | 99 | 1012.4 |
| 20260906104918 | 75 | 8 | 0.0 | 0.0 | 0.00 | 0.00 | 0.00 | 99 | 1012.2 |
| 20260906104416 | 75 | 8 | 0.0 | 0.0 | 0.00 | 0.00 | 0.00 | 99 | 1012.1 |
| 20260906103916 | 75 | 8 | 0.0 | 0.0 | 0.00 | 0.00 | 0.00 | 99 | 1012.1 |
| 20260906103414 | 75 | 5 | 0.0 | 0.0 | 0.00 | 0.00 | 0.00 | 99 | 1012.1 |
| 20260906102910 | 75 | 10 | 0.0 | 0.0 | 0.00 | 0.00 | 0.00 | 99 | 1012.0 |
| 20260906102409 | 75 | 9 | 0.0 | 0.0 | 0.00 | 0.00 | 0.00 | 99 | 1012.0 |
| 20260906101904 | 75 | 13 | 0.0 | 0.0 | 0.00 | 0.00 | 0.00 | 99 | 1012.2 |
| 20260906101359 | 75 | 8 | 0.0 | 0.0 | 0.00 | 0.00 | 0.00 | 99 | 1012.2 |
| 20260906100855 | 75 | 8 | 0.0 | 0.0 | 0.00 | 0.00 | 0.00 | 99 | 1012.1 |
| 20260906100354 | 75 | 7 | 0.0 | 0.0 | 0.00 | 0.00 | 0.00 | 99 | 1012.2 |
| 20260906095849 | 75 | 1 | 0.0 | 0.0 | 0.00 | 0.00 | 0.00 | 99 | 1012.1 |
| 20260906095344 | 75 | 13 | 0.0 | 0.0 | 0.00 | 0.00 | 0.00 | 99 | 1012.3 |
| 20260906094844 | 75 | 13 | 0.0 | 0.0 | 0.00 | 0.00 | 0.00 | 99 | 1012.2 |
| 20260906094339 | 75 | 13 | 0.0 | 0.0 | 0.00 | 0.00 | 0.00 | 99 | 1012.3 |
| 20260906093835 | 75 | 13 | 0.0 | 0.0 | 0.00 | 0.00 | 0.00 | 99 | 1012.2 |
| 20260906093331 | 75 | 13 | 0.0 | 0.0 | 0.00 | 0.00 | 0.00 | 99 | 1012.1 |
| 20260906092826 | 75 | 13 | 0.0 | 0.0 | 0.00 | 0.00 | 0.00 | 99 | 1012.2 |
| 20260906092325 | 75 | 13 | 0.0 | 0.0 | 0.00 | 0.00 | 0.00 | 99 | 1012.3 |
| 20260906091821 | 75 | 13 | 0.0 | 0.0 | 0.00 | 0.00 | 0.00 | 99 | 1012.0 |
| 20260906091317 | 75 | 11 | 0.0 | 0.0 | 0.00 | 0.00 | 0.00 | 99 | 1012.1 |
| 20260906090814 | 75 | 16 | 0.0 | 0.0 | 0.00 | 0.00 | 0.00 | 99 | 1011.8 |
| 20260906090312 | 75 | 21 | 0.0 | 0.0 | 0.00 | 0.00 | 0.00 | 99 | 1011.9 |
| 20260906085812 | 75 | 18 | 0.0 | 0.0 | 0.00 | 0.00 | 0.00 | 99 | 1011.9 |
| 20260906085307 | 75 | 33 | 0.0 | 0.0 | 0.00 | 0.00 | 0.00 | 99 | 1011.7 |
| 20260906084800 | 75 | 21 | 0.0 | 0.0 | 0.00 | 0.00 | 0.00 | 99 | 1011.8 |
| 20260906084300 | 75 | 31 | 0.0 | 0.0 | 0.00 | 0.00 | 0.00 | 99 | 1011.8 |
| 20260906083755 | 75 | 24 | 0.0 | 0.0 | 0.00 | 0.00 | 0.00 | 99 | 1011.8 |
| 20260906083251 | 76 | 31 | 0.0 | 0.0 | 0.00 | 0.00 | 0.00 | 99 | 1011.6 |
| 20260906082745 | 76 | 41 | 0.0 | 0.0 | 0.00 | 0.00 | 0.00 | 99 | 1011.6 |
| 20260906082240 | 76 | 7 | 0.0 | 0.0 | 0.00 | 0.00 | 0.00 | 99 | 1011.7 |
| 20260906081737 | 76 | 358 | 0.0 | 0.0 | 0.00 | 0.00 | 0.00 | 99 | 1011.6 |
| 20260906081231 | 76 | 8 | 0.0 | 0.0 | 0.00 | 0.00 | 0.00 | 99 | 1011.5 |
| 20260906080727 | 76 | 8 | 0.0 | 0.0 | 0.00 | 0.00 | 0.00 | 99 | 1011.6 |
| 20260906080224 | 76 | 6 | 0.0 | 0.0 | 0.00 | 0.00 | 0.00 | 99 | 1011.7 |
| 20260906075717 | 76 | 8 | 0.0 | 0.0 | 0.00 | 0.00 | 0.00 | 99 | 1011.5 |
| 20260906075212 | 76 | 358 | 0.0 | 0.0 | 0.00 | 0.00 | 0.00 | 99 | 1011.7 |
| 20260906074707 | 76 | 5 | 0.9 | 1.7 | 0.00 | 0.00 | 0.00 | 99 | 1011.7 |
| 20260906074207 | 76 | 358 | 0.0 | 0.0 | 0.00 | 0.00 | 0.00 | 99 | 1011.5 |
| 20260906073702 | 75 | 349 | 0.9 | 0.9 | 0.00 | 0.00 | 0.00 | 99 | 1011.6 |
| 20260906073157 | 75 | 0 | 0.0 | 0.0 | 0.00 | 0.00 | 0.00 | 99 | 1011.6 |
| 20260906072652 | 75 | 0 | 0.0 | 0.0 | 0.00 | 0.00 | 0.00 | 99 | 1011.6 |
| 20260906072148 | 75 | 358 | 0.0 | 0.0 | 0.00 | 0.00 | 0.00 | 99 | 1011.6 |
| 20260906071644 | 75 | 357 | 0.0 | 0.0 | 0.00 | 0.00 | 0.00 | 99 | 1011.8 |
| 20260906071143 | 75 | 345 | 0.0 | 0.0 | 0.00 | 0.00 | 0.00 | 99 | 1011.9 |
| 20260906070640 | 75 | 3 | 0.0 | 0.0 | 0.00 | 0.00 | 0.00 | 99 | 1011.8 |
| 20260906070136 | 75 | 20 | 0.0 | 0.0 | 0.00 | 0.00 | 0.00 | 99 | 1012.0 |
| 20260906065635 | 75 | 20 | 0.0 | 0.0 | 0.00 | 0.00 | 0.00 | 99 | 1011.9 |
| 20260906065131 | 75 | 20 | 0.0 | 0.0 | 0.00 | 0.00 | 0.00 | 99 | 1011.7 |
| 20260906064626 | 75 | 20 | 0.0 | 0.0 | 0.00 | 0.00 | 0.00 | 99 | 1012.2 |
| 20260906064121 | 75 | 20 | 0.0 | 0.0 | 0.00 | 0.00 | 0.00 | 99 | 1012.0 |
| 20260906063616 | 75 | 20 | 0.0 | 0.0 | 0.00 | 0.00 | 0.00 | 99 | 1011.9 |
| 20260906063112 | 75 | 20 | 0.0 | 0.0 | 0.00 | 0.00 | 0.00 | 99 | 1012.1 |
| 20260906062608 | 75 | 20 | 0.0 | 0.0 | 0.00 | 0.00 | 0.00 | 99 | 1012.0 |
| 20260906062106 | 75 | 20 | 0.0 | 0.0 | 0.00 | 0.00 | 0.00 | 99 | 1012.1 |
| 20260906061603 | 76 | 20 | 0.0 | 0.0 | 0.00 | 0.00 | 0.00 | 99 | 1012.3 |
| 20260906061102 | 75 | 20 | 0.0 | 0.0 | 0.00 | 0.00 | 0.00 | 99 | 1011.9 |
| 20260906060559 | 76 | 20 | 0.0 | 0.0 | 0.00 | 0.00 | 0.00 | 99 | 1012.1 |
| 20260906060056 | 76 | 20 | 0.0 | 0.0 | 0.00 | 0.00 | 0.00 | 99 | 1012.2 |
| 20260906055551 | 76 | 20 | 0.0 | 0.0 | 0.00 | 0.00 | 0.00 | 99 | 1012.2 |
| 20260906055046 | 76 | 20 | 0.0 | 0.0 | 0.00 | 0.00 | 0.00 | 99 | 1012.1 |
| 20260906054541 | 76 | 20 | 0.0 | 0.0 | 0.00 | 0.00 | 0.00 | 99 | 1012.3 |
| 20260906054036 | 76 | 20 | 0.0 | 0.0 | 0.00 | 0.00 | 0.00 | 99 | 1012.3 |
| 20260906053533 | 76 | 20 | 0.0 | 0.0 | 0.00 | 0.00 | 0.00 | 99 | 1012.3 |
| 20260906053028 | 76 | 20 | 0.0 | 0.0 | 0.00 | 0.00 | 0.00 | 99 | 1012.6 |
| 20260906052524 | 76 | 18 | 0.0 | 0.0 | 0.00 | 0.00 | 0.00 | 99 | 1012.6 |
| 20260906052021 | 77 | 20 | 0.0 | 0.0 | 0.00 | 0.00 | 0.00 | 99 | 1012.8 |
| 20260906051516 | 77 | 14 | 0.0 | 0.0 | 0.00 | 0.00 | 0.00 | 99 | 1012.2 |
| 20260906051011 | 77 | 10 | 0.0 | 0.0 | 0.00 | 0.00 | 0.00 | 99 | 1012.5 |
| 20260906050506 | 77 | 12 | 0.0 | 0.0 | 0.00 | 0.00 | 0.00 | 99 | 1012.1 |
| 20260906050000 | 77 | 22 | 0.0 | 0.0 | 0.00 | 0.00 | 0.00 | 99 | 1012.2 |
| 20260906045459 | 77 | 13 | 0.0 | 0.0 | 0.00 | 0.00 | 0.00 | 99 | 1012.4 |
| 20260906044955 | 77 | 22 | 0.0 | 0.0 | 0.00 | 0.00 | 0.00 | 99 | 1012.4 |
| 20260906044449 | 77 | 8 | 0.0 | 0.0 | 0.00 | 0.00 | 0.00 | 99 | 1012.4 |
| 20260906043946 | 77 | 8 | 0.0 | 0.0 | 0.00 | 0.00 | 0.00 | 99 | 1012.6 |
| 20260906043441 | 77 | 7 | 0.0 | 0.0 | 0.00 | 0.00 | 0.00 | 99 | 1012.4 |
| 20260906042936 | 77 | 342 | 0.9 | 0.9 | 0.00 | 0.00 | 0.00 | 99 | 1012.6 |
| 20260906042436 | 77 | 8 | 0.0 | 0.0 | 0.00 | 0.00 | 0.00 | 99 | 1012.3 |
| 20260906041930 | 77 | 261 | 0.0 | 0.9 | 0.00 | 0.00 | 0.00 | 99 | 1012.2 |
| 20260906041427 | 77 | 350 | 0.0 | 0.0 | 0.00 | 0.00 | 0.00 | 99 | 1012.5 |
| 20260906040926 | 77 | 357 | 0.0 | 0.0 | 0.00 | 0.00 | 0.00 | 99 | 1012.5 |
| 20260906040422 | 77 | 6 | 0.0 | 0.0 | 0.00 | 0.00 | 0.00 | 99 | 1012.7 |
| 20260906035917 | 77 | 3 | 0.0 | 0.0 | 0.00 | 0.65 | 0.65 | 99 | 1012.7 |
| 20260906035413 | 77 | 3 | 0.0 | 0.0 | 0.00 | 0.65 | 0.65 | 99 | 1012.9 |
| 20260906034908 | 77 | 344 | 0.9 | 0.9 | 0.00 | 0.65 | 0.65 | 99 | 1012.8 |
| 20260906034402 | 77 | 4 | 0.0 | 0.0 | 0.00 | 0.65 | 0.65 | 99 | 1013.1 |
| 20260906033858 | 77 | 13 | 0.0 | 0.0 | 0.00 | 0.65 | 0.65 | 99 | 1012.9 |
| 20260906033357 | 77 | 6 | 0.0 | 0.0 | 0.00 | 0.65 | 0.65 | 99 | 1013.1 |
| 20260906032853 | 77 | 14 | 0.0 | 0.0 | 0.00 | 0.65 | 0.65 | 99 | 1013.2 |
| 20260906032349 | 78 | 4 | 0.0 | 0.0 | 0.00 | 0.65 | 0.65 | 99 | 1013.3 |
| 20260906031844 | 78 | 12 | 0.0 | 0.0 | 0.00 | 0.65 | 0.65 | 99 | 1013.0 |
| 20260906031339 | 78 | 12 | 0.0 | 0.0 | 0.00 | 0.65 | 0.65 | 99 | 1013.3 |
| 20260906030839 | 78 | 5 | 0.0 | 0.0 | 0.00 | 0.65 | 0.65 | 99 | 1013.2 |
| 20260906030335 | 78 | 11 | 0.0 | 0.0 | 0.00 | 0.65 | 0.65 | 99 | 1013.4 |
| 20260906025829 | 78 | 0 | 0.0 | 0.0 | 0.00 | 0.65 | 0.65 | 99 | 1013.2 |
| 20260906025323 | 78 | 14 | 0.0 | 0.0 | 0.00 | 0.65 | 0.65 | 99 | 1013.2 |
| 20260906024822 | 78 | 6 | 0.0 | 0.0 | 0.00 | 0.65 | 0.65 | 99 | 1013.1 |
| 20260906024321 | 78 | 9 | 0.0 | 0.0 | 0.00 | 0.65 | 0.65 | 99 | 1013.4 |
| 20260906023817 | 78 | 9 | 0.0 | 0.0 | 0.00 | 0.65 | 0.65 | 99 | 1013.2 |
| 20260906023312 | 78 | 16 | 0.0 | 0.0 | 0.00 | 0.65 | 0.65 | 99 | 1013.2 |
| 20260906022808 | 79 | 12 | 0.0 | 0.0 | 0.00 | 0.65 | 0.65 | 99 | 1013.2 |
| 20260906022306 | 78 | 23 | 0.0 | 0.0 | 0.00 | 0.65 | 0.65 | 99 | 1013.1 |
| 20260906021759 | 79 | 23 | 0.0 | 0.0 | 0.00 | 0.65 | 0.65 | 99 | 1013.2 |
| 20260906021258 | 79 | 21 | 0.0 | 0.0 | 0.00 | 0.65 | 0.65 | 99 | 1013.2 |
| 20260906020753 | 79 | 14 | 0.0 | 0.0 | 0.00 | 0.65 | 0.65 | 99 | 1012.9 |
| 20260906020253 | 79 | 21 | 0.0 | 0.0 | 0.00 | 0.65 | 0.65 | 99 | 1012.8 |
| 20260906015753 | 79 | 8 | 0.0 | 0.0 | 0.00 | 0.65 | 0.65 | 99 | 1012.7 |
| 20260906015251 | 79 | 8 | 0.0 | 0.0 | 0.00 | 0.65 | 0.65 | 99 | 1012.8 |
| 20260906014746 | 79 | 349 | 0.9 | 0.9 | 0.00 | 0.65 | 0.65 | 99 | 1012.5 |
| 20260906014242 | 79 | 345 | 0.0 | 0.0 | 0.00 | 0.65 | 0.65 | 99 | 1012.4 |
| 20260906013737 | 79 | 359 | 0.0 | 0.9 | 0.00 | 0.65 | 0.65 | 99 | 1012.5 |
| 20260906013237 | 79 | 357 | 0.0 | 0.9 | 0.00 | 0.65 | 0.65 | 99 | 1012.3 |
| 20260906012733 | 79 | 309 | 0.9 | 0.9 | 0.00 | 0.65 | 0.65 | 99 | 1012.3 |
| 20260906012227 | 79 | 15 | 0.0 | 0.0 | 0.00 | 0.65 | 0.65 | 99 | 1012.4 |
| 20260906011723 | 79 | 8 | 0.0 | 0.0 | 0.00 | 0.65 | 0.65 | 99 | 1012.3 |
| 20260906011217 | 80 | 8 | 0.0 | 0.0 | 0.00 | 0.65 | 0.65 | 99 | 1012.2 |
| 20260906010713 | 80 | 5 | 0.0 | 0.0 | 0.00 | 0.65 | 0.65 | 99 | 1011.9 |
| 20260906010209 | 79 | 19 | 0.0 | 0.0 | 0.00 | 0.65 | 0.65 | 99 | 1012.2 |
| 20260906005708 | 79 | 19 | 0.0 | 0.0 | 0.00 | 0.65 | 0.65 | 99 | 1012.1 |
| 20260906005203 | 80 | 15 | 0.0 | 0.0 | 0.00 | 0.65 | 0.65 | 99 | 1012.0 |
| 20260906004701 | 80 | 24 | 0.0 | 0.0 | 0.00 | 0.65 | 0.65 | 99 | 1011.9 |
| 20260906004156 | 80 | 24 | 0.0 | 0.0 | 0.00 | 0.65 | 0.65 | 99 | 1011.9 |
| 20260906003652 | 80 | 22 | 0.0 | 0.0 | 0.00 | 0.65 | 0.65 | 99 | 1011.7 |
| 20260906003147 | 80 | 21 | 0.0 | 0.0 | 0.00 | 0.65 | 0.65 | 99 | 1011.6 |
| 20260906002642 | 80 | 21 | 0.0 | 0.0 | 0.00 | 0.65 | 0.65 | 99 | 1011.8 |
| 20260906002137 | 80 | 22 | 0.0 | 0.0 | 0.00 | 0.65 | 0.65 | 98 | 1011.5 |
| 20260906001632 | 81 | 21 | 0.0 | 0.0 | 0.00 | 0.65 | 0.65 | 98 | 1011.4 |
| 20260906001132 | 81 | 19 | 0.0 | 0.0 | 0.00 | 0.65 | 0.65 | 98 | 1011.3 |
| 20260906000628 | 81 | 19 | 0.0 | 0.0 | 0.00 | 0.65 | 0.65 | 98 | 1011.2 |
| 20260906000123 | 81 | 15 | 0.0 | 0.0 | 0.00 | 0.65 | 0.65 | 99 | 1011.1 |
| 20260905235621 | 82 | 15 | 0.0 | 0.0 | 0.00 | 0.65 | 0.65 | 99 | 1011.3 |
| 20260905235117 | 82 | 15 | 0.0 | 0.0 | 0.00 | 0.65 | 0.65 | 98 | 1011.1 |
| 20260905234612 | 82 | 15 | 0.9 | 0.9 | 0.00 | 0.65 | 0.65 | 98 | 1011.0 |
| 20260905234108 | 83 | 24 | 0.0 | 0.0 | 0.00 | 0.65 | 0.65 | 97 | 1011.2 |
| 20260905233602 | 84 | 25 | 0.0 | 0.0 | 0.00 | 0.65 | 0.65 | 96 | 1011.6 |
| 20260905233056 | 84 | 11 | 0.0 | 0.0 | 0.00 | 0.65 | 0.65 | 95 | 1011.2 |
| 20260905232552 | 85 | 11 | 0.0 | 0.0 | 0.00 | 0.65 | 0.65 | 94 | 1011.3 |
| 20260905232048 | 85 | 359 | 0.0 | 0.0 | 0.00 | 0.65 | 0.65 | 92 | 1011.3 |
| 20260905231543 | 86 | 353 | 0.0 | 0.9 | 0.00 | 0.65 | 0.65 | 89 | 1011.3 |
| 20260905231039 | 86 | 328 | 0.9 | 0.9 | 0.00 | 0.65 | 0.65 | 88 | 1011.4 |
| 20260905230538 | 87 | 7 | 0.0 | 0.0 | 0.00 | 0.65 | 0.65 | 88 | 1011.2 |
| 20260905230037 | 87 | 9 | 0.0 | 0.9 | 0.00 | 0.65 | 0.65 | 88 | 1011.3 |
| 20260905225531 | 87 | 4 | 0.0 | 0.0 | 0.00 | 0.65 | 0.65 | 87 | 1011.4 |
| 20260905225026 | 88 | 344 | 0.9 | 0.9 | 0.00 | 0.65 | 0.65 | 86 | 1011.6 |
| 20260905224521 | 88 | 328 | 1.7 | 1.7 | 0.00 | 0.65 | 0.65 | 84 | 1011.8 |
| 20260905224021 | 88 | 330 | 0.9 | 0.9 | 0.00 | 0.65 | 0.65 | 84 | 1012.0 |
| 20260905223518 | 88 | 0 | 0.9 | 0.9 | 0.00 | 0.65 | 0.65 | 83 | 1011.9 |
| 20260905223013 | 89 | 323 | 0.9 | 0.9 | 0.00 | 0.65 | 0.65 | 82 | 1012.0 |
| 20260905222508 | 90 | 352 | 0.9 | 1.7 | 0.00 | 0.65 | 0.65 | 81 | 1012.2 |
| 20260905222003 | 90 | 79 | 0.9 | 1.7 | 0.00 | 0.65 | 0.65 | 78 | 1012.1 |
| 20260905221500 | 90 | 290 | 2.6 | 2.6 | 0.00 | 0.65 | 0.65 | 77 | 1012.1 |
| 20260905220955 | 90 | 303 | 0.9 | 0.9 | 0.00 | 0.65 | 0.65 | 79 | 1012.0 |
| 20260905220451 | 90 | 4 | 0.0 | 0.9 | 0.00 | 0.65 | 0.65 | 79 | 1012.1 |
| 20260905215950 | 90 | 336 | 1.7 | 1.7 | 0.00 | 0.65 | 0.65 | 78 | 1012.3 |
| 20260905215446 | 91 | 293 | 2.6 | 2.6 | 0.00 | 0.65 | 0.65 | 78 | 1012.2 |
| 20260905214942 | 91 | 356 | 0.9 | 1.7 | 0.00 | 0.65 | 0.65 | 78 | 1012.2 |
| 20260905214437 | 90 | 350 | 0.9 | 0.9 | 0.00 | 0.65 | 0.65 | 79 | 1012.0 |
| 20260905213932 | 91 | 301 | 2.6 | 2.6 | 0.00 | 0.65 | 0.65 | 78 | 1012.3 |
| 20260905213428 | 91 | 348 | 1.7 | 1.7 | 0.00 | 0.65 | 0.65 | 78 | 1011.9 |
| 20260905212923 | 91 | 333 | 1.7 | 1.7 | 0.00 | 0.65 | 0.65 | 77 | 1012.1 |
| 20260905212418 | 91 | 327 | 1.7 | 1.7 | 0.00 | 0.65 | 0.65 | 77 | 1011.9 |
| 20260905211917 | 92 | 308 | 2.6 | 2.6 | 0.00 | 0.65 | 0.65 | 78 | 1012.2 |
| 20260905211413 | 91 | 1 | 0.0 | 0.0 | 0.00 | 0.65 | 0.65 | 79 | 1012.2 |
| 20260905210909 | 91 | 247 | 0.9 | 0.9 | 0.00 | 0.65 | 0.65 | 80 | 1012.1 |
| 20260905210409 | 89 | 2 | 0.0 | 0.0 | 0.00 | 0.65 | 0.65 | 82 | 1012.4 |
| 20260905205908 | 89 | 206 | 2.6 | 2.6 | 0.00 | 0.65 | 0.65 | 83 | 1012.0 |
| 20260905205403 | 89 | 264 | 0.9 | 0.9 | 0.00 | 0.65 | 0.65 | 82 | 1012.0 |
| 20260905204902 | 89 | 231 | 1.7 | 1.7 | 0.00 | 0.65 | 0.65 | 83 | 1012.1 |
| 20260905204358 | 87 | 358 | 0.0 | 0.0 | 0.00 | 0.65 | 0.65 | 87 | 1012.1 |
| 20260905203851 | 87 | 333 | 0.9 | 0.9 | 0.00 | 0.65 | 0.65 | 89 | 1012.1 |
| 20260905203347 | 86 | 338 | 0.9 | 1.7 | 0.00 | 0.65 | 0.65 | 90 | 1012.3 |
| 20260905202842 | 84 | 352 | 0.9 | 0.9 | 0.00 | 0.65 | 0.65 | 97 | 1012.1 |
| 20260905202337 | 83 | 0 | 0.9 | 0.9 | 0.00 | 0.65 | 0.65 | 98 | 1012.3 |
| 20260905201833 | 83 | 2 | 0.9 | 0.9 | 0.00 | 0.65 | 0.65 | 98 | 1012.5 |
| 20260905201328 | 81 | 22 | 0.0 | 0.9 | 0.00 | 0.65 | 0.65 | 98 | 1012.4 |
| 20260905200822 | 80 | 31 | 0.0 | 0.9 | 0.12 | 0.65 | 0.65 | 98 | 1012.6 |
| 20260905200319 | 82 | 340 | 1.7 | 1.7 | 0.12 | 0.65 | 0.65 | 97 | 1012.7 |
| 20260905195816 | 84 | 61 | 2.6 | 2.6 | 0.12 | 0.64 | 0.64 | 96 | 1012.6 |
| 20260905195311 | 85 | 26 | 0.9 | 0.9 | 0.07 | 0.63 | 0.63 | 92 | 1012.9 |
| 20260905194808 | 87 | 353 | 1.7 | 1.7 | 0.00 | 0.62 | 0.62 | 89 | 1012.7 |
| 20260905194306 | 88 | 345 | 0.9 | 0.9 | 0.00 | 0.62 | 0.62 | 86 | 1012.8 |
| 20260905193800 | 90 | 15 | 0.0 | 0.0 | 0.00 | 0.62 | 0.62 | 83 | 1012.4 |
| 20260905193255 | 90 | 4 | 0.9 | 0.9 | 0.00 | 0.62 | 0.62 | 83 | 1012.4 |
| 20260905192751 | 90 | 324 | 1.7 | 2.6 | 0.00 | 0.62 | 0.62 | 82 | 1012.7 |
| 20260905192247 | 90 | 355 | 0.9 | 0.9 | 0.00 | 0.62 | 0.62 | 82 | 1012.8 |
| 20260905191747 | 88 | 356 | 1.7 | 1.7 | 0.00 | 0.62 | 0.62 | 86 | 1013.1 |
| 20260905191245 | 90 | 5 | 1.7 | 2.6 | 0.00 | 0.62 | 0.62 | 83 | 1013.0 |
| 20260905190743 | 89 | 335 | 1.7 | 1.7 | 0.00 | 0.62 | 0.62 | 83 | 1012.9 |
| 20260905190243 | 87 | 319 | 3.5 | 5.2 | 0.00 | 0.62 | 0.62 | 88 | 1012.9 |
| 20260905185742 | 86 | 344 | 0.0 | 0.0 | 0.00 | 0.62 | 0.62 | 92 | 1012.8 |
| 20260905185236 | 83 | 6 | 1.7 | 1.7 | 0.00 | 0.62 | 0.62 | 95 | 1012.8 |
| 20260905184730 | 82 | 358 | 0.0 | 0.9 | 0.00 | 0.62 | 0.62 | 98 | 1013.1 |
| 20260905184229 | 82 | 351 | 0.9 | 0.9 | 0.00 | 0.62 | 0.62 | 99 | 1013.0 |
| 20260905183723 | 81 | 350 | 0.9 | 0.9 | 0.00 | 0.62 | 0.62 | 99 | 1013.1 |
| 20260905183219 | 81 | 358 | 0.0 | 0.9 | 0.00 | 0.62 | 0.62 | 99 | 1013.3 |
| 20260905182713 | 81 | 7 | 0.0 | 0.0 | 0.00 | 0.62 | 0.62 | 99 | 1013.4 |
| 20260905182213 | 81 | 3 | 0.9 | 0.9 | 0.00 | 0.62 | 0.62 | 99 | 1013.3 |
| 20260905181708 | 82 | 336 | 0.9 | 1.7 | 0.00 | 0.62 | 0.62 | 99 | 1013.6 |
| 20260905181207 | 82 | 358 | 0.0 | 0.9 | 0.00 | 0.62 | 0.62 | 99 | 1013.7 |
| 20260905180702 | 81 | 7 | 0.0 | 0.0 | 0.00 | 0.62 | 0.62 | 99 | 1013.7 |
| 20260905180157 | 80 | 7 | 0.0 | 0.0 | 0.00 | 0.62 | 0.62 | 99 | 1013.9 |
| 20260905175656 | 80 | 23 | 0.0 | 0.0 | 0.00 | 0.62 | 0.62 | 99 | 1013.8 |
| 20260905175152 | 80 | 15 | 0.0 | 0.0 | 0.00 | 0.62 | 0.62 | 99 | 1013.8 |
| 20260905174647 | 80 | 23 | 0.0 | 0.0 | 0.00 | 0.62 | 0.62 | 99 | 1013.6 |
| 20260905174143 | 81 | 12 | 0.0 | 0.0 | 0.17 | 0.62 | 0.62 | 99 | 1013.7 |
| 20260905173639 | 81 | 15 | 0.0 | 0.0 | 0.71 | 0.62 | 0.62 | 99 | 1013.6 |
| 20260905173134 | 80 | 12 | 0.0 | 0.0 | 1.21 | 0.60 | 0.60 | 99 | 1013.7 |
| 20260905172633 | 80 | 6 | 0.0 | 0.9 | 1.02 | 0.52 | 0.52 | 99 | 1013.8 |
| 20260905172128 | 81 | 8 | 0.9 | 1.7 | 0.28 | 0.40 | 0.40 | 99 | 1014.2 |
| 20260905171624 | 81 | 13 | 0.0 | 0.0 | 0.07 | 0.35 | 0.35 | 99 | 1014.3 |
| 20260905171120 | 81 | 11 | 0.0 | 0.0 | 0.85 | 0.35 | 0.35 | 98 | 1014.2 |
| 20260905170616 | 81 | 22 | 0.0 | 0.0 | 2.10 | 0.35 | 0.35 | 98 | 1014.5 |
| 20260905170111 | 82 | 6 | 0.9 | 0.9 | 1.68 | 0.28 | 0.28 | 96 | 1014.4 |
| 20260905165606 | 86 | 358 | 5.2 | 7.0 | 0.17 | 0.03 | 0.03 | 89 | 1014.2 |
| 20260905165101 | 89 | 4 | 1.7 | 1.7 | 0.00 | 0.00 | 0.00 | 81 | 1014.3 |
| 20260905164555 | 89 | 321 | 1.7 | 1.7 | 0.00 | 0.00 | 0.00 | 82 | 1014.4 |
| 20260905164050 | 88 | 336 | 1.7 | 2.6 | 0.00 | 0.00 | 0.00 | 79 | 1014.2 |
| 20260905163546 | 88 | 22 | 0.9 | 1.7 | 0.00 | 0.00 | 0.00 | 79 | 1014.6 |
| 20260905163042 | 88 | 344 | 1.7 | 2.6 | 0.00 | 0.00 | 0.00 | 83 | 1014.3 |
| 20260905162538 | 88 | 357 | 1.7 | 2.6 | 0.00 | 0.00 | 0.00 | 79 | 1014.5 |
| 20260905162037 | 87 | 289 | 3.5 | 6.1 | 0.00 | 0.00 | 0.00 | 83 | 1014.6 |
| 20260905161532 | 88 | 310 | 3.5 | 4.3 | 0.00 | 0.00 | 0.00 | 81 | 1014.7 |
| 20260905161030 | 87 | 337 | 2.6 | 2.6 | 0.00 | 0.00 | 0.00 | 84 | 1014.8 |
| 20260905160529 | 87 | 265 | 2.6 | 2.6 | 0.00 | 0.00 | 0.00 | 83 | 1014.9 |
| 20260905160029 | 87 | 317 | 2.6 | 2.6 | 0.00 | 0.00 | 0.00 | 84 | 1014.8 |
| 20260905155529 | 87 | 339 | 0.9 | 1.7 | 0.00 | 0.00 | 0.00 | 83 | 1015.0 |
| 20260905155027 | 86 | 359 | 2.6 | 2.6 | 0.00 | 0.00 | 0.00 | 86 | 1015.0 |
| 20260905154522 | 87 | 353 | 1.7 | 2.6 | 0.00 | 0.00 | 0.00 | 87 | 1015.0 |
| 20260905154018 | 87 | 312 | 2.6 | 4.3 | 0.00 | 0.00 | 0.00 | 86 | 1015.2 |
| 20260905153514 | 86 | 286 | 2.6 | 2.6 | 0.00 | 0.00 | 0.00 | 88 | 1015.0 |
| 20260905153014 | 86 | 267 | 2.6 | 2.6 | 0.00 | 0.00 | 0.00 | 87 | 1015.2 |
| 20260905152514 | 86 | 281 | 2.6 | 4.3 | 0.00 | 0.00 | 0.00 | 89 | 1015.1 |
| 20260905152009 | 85 | 320 | 2.6 | 2.6 | 0.00 | 0.00 | 0.00 | 90 | 1015.2 |
| 20260905151504 | 84 | 317 | 2.6 | 2.6 | 0.00 | 0.00 | 0.00 | 91 | 1015.3 |
| 20260905150959 | 84 | 353 | 0.0 | 0.9 | 0.00 | 0.00 | 0.00 | 93 | 1015.1 |
| 20260905150454 | 83 | 290 | 1.7 | 1.7 | 0.00 | 0.00 | 0.00 | 96 | 1015.2 |
| 20260905145950 | 83 | 8 | 0.9 | 1.7 | 0.00 | 0.00 | 0.00 | 97 | 1015.3 |
| 20260905145445 | 83 | 298 | 1.7 | 1.7 | 0.00 | 0.00 | 0.00 | 96 | 1015.3 |
| 20260905144944 | 83 | 351 | 1.7 | 1.7 | 0.00 | 0.00 | 0.00 | 98 | 1015.5 |
| 20260905144440 | 82 | 253 | 1.7 | 1.7 | 0.00 | 0.00 | 0.00 | 98 | 1015.3 |
| 20260905143939 | 80 | 358 | 1.7 | 1.7 | 0.00 | 0.00 | 0.00 | 99 | 1015.3 |
| 20260905143438 | 81 | 332 | 2.6 | 4.3 | 0.00 | 0.00 | 0.00 | 99 | 1015.2 |
| 20260905142933 | 80 | 318 | 1.7 | 1.7 | 0.00 | 0.00 | 0.00 | 99 | 1015.3 |
| 20260905142432 | 80 | 336 | 2.6 | 2.6 | 0.00 | 0.00 | 0.00 | 99 | 1015.1 |
| 20260905141927 | 79 | 294 | 2.6 | 2.6 | 0.00 | 0.00 | 0.00 | 99 | 1015.1 |